Time;durP1;ratioP1;P1;durP2;ratioP2;P2;SDS_P1;SDS_P2;PMS_P1;PMS_P2;Temp;Humidity;BMP_temperature;BMP_pressure;BME280_temperature;BME280_humidity;BME280_pressure;Samples;Min_cycle;Max_cycle;Signal;HPM_P1;HPM_P2
2024/04/20 00:00:06;;;;;;;9.40;3.13;;;2.60;99.90;;;;;;2235120;26;20237;-71
2024/04/20 00:01:07;;;;;;;6.95;3.20;;;2.60;99.90;;;;;;2231022;26;20893;-70
2024/04/20 00:02:07;;;;;;;10.93;3.73;;;2.60;99.90;;;;;;2234225;26;20402;-71
2024/04/20 00:03:10;;;;;;;9.03;3.00;;;2.60;99.90;;;;;;2244726;26;20238;-68
2024/04/20 00:04:11;;;;;;;7.07;3.38;;;2.70;99.90;;;;;;2245205;26;20303;-70
2024/04/20 00:05:12;;;;;;;8.47;3.37;;;2.70;99.90;;;;;;2235495;26;20236;-69
2024/04/20 00:06:13;;;;;;;8.05;3.08;;;2.80;99.90;;;;;;2233527;26;20300;-69
2024/04/20 00:07:14;;;;;;;6.82;3.05;;;2.70;99.90;;;;;;2234381;26;20243;-70
2024/04/20 00:08:15;;;;;;;7.68;3.28;;;2.70;99.90;;;;;;2234246;26;20795;-69
2024/04/20 00:09:16;;;;;;;6.60;2.77;;;2.70;99.90;;;;;;2235452;26;20304;-69
2024/04/20 00:10:18;;;;;;;9.73;4.27;;;2.70;99.90;;;;;;2245563;26;20718;-71
2024/04/20 00:11:20;;;;;;;10.10;2.95;;;2.70;99.90;;;;;;2242262;26;20268;-71
2024/04/20 00:12:21;;;;;;;3.83;2.60;;;2.70;99.90;;;;;;2247850;26;20321;-70
2024/04/20 00:13:22;;;;;;;4.20;2.37;;;2.70;99.90;;;;;;2251218;26;20308;-70
2024/04/20 00:14:22;;;;;;;6.57;2.63;;;2.60;99.90;;;;;;2234547;26;20272;-68
2024/04/20 00:15:23;;;;;;;7.73;2.60;;;2.60;99.90;;;;;;2220846;26;20265;-69
2024/04/20 00:16:24;;;;;;;6.33;2.70;;;2.70;99.90;;;;;;2206262;26;20741;-68
2024/04/20 00:17:24;;;;;;;10.77;3.27;;;2.70;99.90;;;;;;2219593;26;20288;-70
2024/04/20 00:18:25;;;;;;;9.27;2.83;;;2.70;99.90;;;;;;2235672;26;20268;-69
2024/04/20 00:19:26;;;;;;;9.63;3.67;;;2.60;99.90;;;;;;2236010;26;20264;-68
2024/04/20 00:20:31;;;;;;;10.33;2.60;;;2.60;99.90;;;;;;2243505;26;20744;-69
2024/04/20 00:21:31;;;;;;;8.57;3.53;;;2.60;99.90;;;;;;2242749;26;20318;-68
2024/04/20 00:22:32;;;;;;;6.37;2.90;;;2.60;99.90;;;;;;2242934;26;20324;-69
2024/04/20 00:23:33;;;;;;;6.43;3.20;;;2.60;99.90;;;;;;2243548;26;20312;-68
2024/04/20 00:24:34;;;;;;;12.50;3.22;;;2.50;99.90;;;;;;2235354;26;20268;-69
2024/04/20 00:25:38;;;;;;;11.87;4.00;;;2.50;99.90;;;;;;2236223;26;20684;-68
2024/04/20 00:26:38;;;;;;;9.93;2.80;;;2.50;99.90;;;;;;2221297;26;20423;-68
2024/04/20 00:27:39;;;;;;;7.77;3.70;;;2.50;99.90;;;;;;2235068;26;20292;-68
2024/04/20 00:28:40;;;;;;;9.53;3.37;;;2.50;99.90;;;;;;2243143;26;20306;-68
2024/04/20 00:29:40;;;;;;;9.87;3.90;;;2.60;99.90;;;;;;2213304;26;20309;-68
2024/04/20 00:30:41;;;;;;;10.80;2.90;;;2.60;99.90;;;;;;2228041;26;20288;-67
2024/04/20 00:31:42;;;;;;;7.77;3.80;;;2.70;99.90;;;;;;2235521;26;20272;-67
2024/04/20 00:32:45;;;;;;;8.10;3.17;;;2.70;99.90;;;;;;2241453;26;20310;-67
2024/04/20 00:33:45;;;;;;;7.13;3.40;;;2.70;99.90;;;;;;2243192;26;20335;-67
2024/04/20 00:34:46;;;;;;;7.90;3.37;;;2.70;99.90;;;;;;2228546;26;20360;-67
2024/04/20 00:35:47;;;;;;;6.53;3.10;;;2.70;99.90;;;;;;2228682;26;20304;-68
2024/04/20 00:36:51;;;;;;;5.93;3.10;;;2.60;99.90;;;;;;2220943;26;20284;-67
2024/04/20 00:37:52;;;;;;;7.88;2.90;;;2.70;99.90;;;;;;2218342;26;20322;-67
2024/04/20 00:38:54;;;;;;;5.60;3.33;;;2.60;99.90;;;;;;2235705;26;20819;-67
2024/04/20 00:39:54;;;;;;;15.32;3.38;;;2.70;99.90;;;;;;2235543;26;20596;-67
2024/04/20 00:40:56;;;;;;;7.70;3.30;;;2.70;99.90;;;;;;2247853;26;20305;-67
2024/04/20 00:41:57;;;;;;;7.10;2.90;;;2.60;99.90;;;;;;2250584;26;20267;-67
2024/04/20 00:42:57;;;;;;;8.75;3.88;;;2.70;99.90;;;;;;2228179;26;20272;-68
2024/04/20 00:43:58;;;;;;;9.90;3.07;;;2.70;99.90;;;;;;2235804;26;20310;-68
2024/04/20 00:44:59;;;;;;;10.57;3.40;;;2.70;99.90;;;;;;2235836;26;20299;-67
2024/04/20 00:46:00;;;;;;;7.82;3.75;;;2.70;99.90;;;;;;2235591;26;20859;-67
2024/04/20 00:47:04;;;;;;;7.27;3.73;;;2.70;99.90;;;;;;2233598;26;20344;-67
2024/04/20 00:48:05;;;;;;;9.63;3.15;;;2.70;99.90;;;;;;2233811;26;20244;-67
2024/04/20 00:49:06;;;;;;;9.32;2.95;;;2.80;99.90;;;;;;2249277;26;20619;-68
2024/04/20 00:50:07;;;;;;;9.23;3.20;;;2.80;99.90;;;;;;2253325;26;20294;-69
2024/04/20 00:51:08;;;;;;;7.88;3.00;;;2.80;99.90;;;;;;2249851;26;20332;-69
2024/04/20 00:52:09;;;;;;;6.40;3.03;;;2.90;99.90;;;;;;2235689;26;20219;-69
2024/04/20 00:53:13;;;;;;;9.65;3.28;;;2.90;99.90;;;;;;2225321;26;20246;-70
2024/04/20 00:54:15;;;;;;;8.13;3.05;;;2.90;99.90;;;;;;2229290;26;20237;-70
2024/04/20 00:55:16;;;;;;;9.40;3.30;;;2.90;99.90;;;;;;2234310;26;20345;-74
2024/04/20 00:56:18;;;;;;;10.87;3.30;;;2.90;99.90;;;;;;2244662;26;20337;-70
2024/04/20 00:57:20;;;;;;;8.40;3.28;;;2.90;99.90;;;;;;2228537;26;20232;-71
2024/04/20 00:58:22;;;;;;;9.98;3.13;;;2.90;99.90;;;;;;2221769;26;20729;-71
2024/04/20 00:59:24;;;;;;;8.88;3.30;;;2.90;99.90;;;;;;2235970;26;20681;-70
2024/04/20 01:00:25;;;;;;;6.03;2.90;;;2.80;99.90;;;;;;2236671;26;20265;-70
2024/04/20 01:01:26;;;;;;;9.60;3.00;;;2.70;99.90;;;;;;2242573;26;20317;-69
2024/04/20 01:02:28;;;;;;;10.60;3.60;;;2.60;99.90;;;;;;2229598;26;20305;-70
2024/04/20 01:03:29;;;;;;;8.40;4.30;;;2.60;99.90;;;;;;2221087;26;20623;-70
2024/04/20 01:04:30;;;;;;;5.77;3.97;;;2.60;99.90;;;;;;2235001;26;20390;-70
2024/04/20 01:05:32;;;;;;;7.10;3.63;;;2.50;99.90;;;;;;2234703;26;20283;-69
2024/04/20 01:06:32;;;;;;;8.77;3.25;;;2.50;99.90;;;;;;2248271;26;20346;-70
2024/04/20 01:07:33;;;;;;;7.77;3.80;;;2.50;99.90;;;;;;2234655;26;20264;-71
2024/04/20 01:08:34;;;;;;;8.57;3.50;;;2.50;99.90;;;;;;2244349;26;20264;-70
2024/04/20 01:09:34;;;;;;;9.30;3.83;;;2.60;99.90;;;;;;2243431;26;20311;-70
2024/04/20 01:10:36;;;;;;;10.60;4.03;;;2.50;99.90;;;;;;2233099;26;20304;-70
2024/04/20 01:11:37;;;;;;;8.55;3.55;;;2.50;99.90;;;;;;2220760;26;20270;-70
2024/04/20 01:12:38;;;;;;;12.70;3.53;;;2.50;99.90;;;;;;2228562;26;20271;-70
2024/04/20 01:13:39;;;;;;;7.25;3.75;;;2.50;99.90;;;;;;2242248;26;20271;-70
2024/04/20 01:14:40;;;;;;;6.73;3.00;;;2.40;99.90;;;;;;2242806;26;20272;-70
2024/04/20 01:15:41;;;;;;;8.32;3.45;;;2.40;99.90;;;;;;2242467;26;20696;-70
2024/04/20 01:16:42;;;;;;;8.77;3.43;;;2.40;99.90;;;;;;2243398;26;20315;-70
2024/04/20 01:17:42;;;;;;;5.83;2.80;;;2.30;99.90;;;;;;2243397;26;20306;-70
2024/04/20 01:18:43;;;;;;;7.30;4.00;;;2.30;99.90;;;;;;2243473;26;20721;-70
2024/04/20 01:19:44;;;;;;;10.87;3.43;;;2.40;99.90;;;;;;2244272;26;20314;-70
2024/04/20 01:20:45;;;;;;;7.40;3.47;;;2.40;99.90;;;;;;2227737;26;20285;-70
2024/04/20 01:21:46;;;;;;;7.70;3.30;;;2.50;99.90;;;;;;2235348;26;20322;-70
2024/04/20 01:22:47;;;;;;;4.03;2.60;;;2.50;99.90;;;;;;2227864;26;20278;-70
2024/04/20 01:23:53;;;;;;;6.97;2.87;;;2.50;99.90;;;;;;2242456;26;20271;-71
2024/04/20 01:24:57;;;;;;;7.45;3.80;;;2.60;99.90;;;;;;2249766;26;20271;-70
2024/04/20 01:25:58;;;;;;;6.53;3.13;;;2.50;99.90;;;;;;2248999;26;20271;-70
2024/04/20 01:26:58;;;;;;;10.63;3.20;;;2.60;99.90;;;;;;2228725;26;20267;-70
2024/04/20 01:28:01;;;;;;;8.07;3.37;;;2.60;99.90;;;;;;2247878;26;20265;-70
2024/04/20 01:29:01;;;;;;;5.50;2.80;;;2.60;99.90;;;;;;2241239;26;20274;-69
2024/04/20 01:30:03;;;;;;;5.10;2.57;;;2.70;99.90;;;;;;2229938;26;20299;-70
2024/04/20 01:31:04;;;;;;;6.53;3.03;;;2.70;99.90;;;;;;2213574;26;20229;-69
2024/04/20 01:32:05;;;;;;;6.00;2.77;;;2.60;99.90;;;;;;2238765;26;20278;-70
2024/04/20 01:33:06;;;;;;;6.88;2.88;;;2.60;99.90;;;;;;2230469;26;20653;-70
2024/04/20 01:34:06;;;;;;;6.23;2.90;;;2.60;99.90;;;;;;2219686;26;20234;-70
2024/04/20 01:35:07;;;;;;;9.00;3.80;;;2.50;99.90;;;;;;2249266;26;20270;-70
2024/04/20 01:36:08;;;;;;;9.27;3.00;;;2.50;99.90;;;;;;2249499;26;20720;-70
2024/04/20 01:37:08;;;;;;;6.67;3.50;;;2.60;99.90;;;;;;2247859;26;20220;-70
2024/04/20 01:38:09;;;;;;;8.10;3.13;;;2.60;99.90;;;;;;2250812;26;20291;-70
2024/04/20 01:39:10;;;;;;;7.30;2.87;;;2.60;99.90;;;;;;2234761;26;20334;-70
2024/04/20 01:40:11;;;;;;;6.47;3.07;;;2.50;99.90;;;;;;2234808;26;20229;-70
2024/04/20 01:41:11;;;;;;;4.90;2.63;;;2.40;99.90;;;;;;2234915;26;20243;-70
2024/04/20 01:42:12;;;;;;;8.07;2.80;;;2.40;99.90;;;;;;2235119;26;20240;-71
2024/04/20 01:43:14;;;;;;;7.80;3.63;;;2.40;99.90;;;;;;2237170;26;20243;-70
2024/04/20 01:44:15;;;;;;;6.60;2.78;;;2.40;99.90;;;;;;2246777;26;20247;-70
2024/04/20 01:45:16;;;;;;;5.07;2.70;;;2.40;99.90;;;;;;2214731;26;20726;-70
2024/04/20 01:46:17;;;;;;;7.53;3.53;;;2.40;99.90;;;;;;2221428;26;20237;-70
2024/04/20 01:47:17;;;;;;;7.93;2.70;;;2.40;99.90;;;;;;2235780;26;20232;-70
2024/04/20 01:48:18;;;;;;;9.43;3.07;;;2.50;99.90;;;;;;2236091;26;20244;-70
2024/04/20 01:49:19;;;;;;;6.23;2.80;;;2.50;99.90;;;;;;2243901;26;20246;-70
2024/04/20 01:50:19;;;;;;;11.73;3.63;;;2.40;99.90;;;;;;2243210;26;20242;-70
2024/04/20 01:51:20;;;;;;;6.90;2.90;;;2.40;99.90;;;;;;2242917;26;20238;-70
2024/04/20 01:52:21;;;;;;;6.63;3.40;;;2.40;99.90;;;;;;2242997;26;20940;-70
2024/04/20 01:53:22;;;;;;;4.90;2.90;;;2.50;99.90;;;;;;2243913;26;20382;-70
2024/04/20 01:54:22;;;;;;;11.03;3.33;;;2.50;99.90;;;;;;2234726;26;20267;-70
2024/04/20 01:55:23;;;;;;;10.77;3.00;;;2.50;99.90;;;;;;2221724;26;20268;-70
2024/04/20 01:56:24;;;;;;;6.93;2.80;;;2.40;99.90;;;;;;2236034;26;20360;-70
2024/04/20 01:57:24;;;;;;;7.03;3.20;;;2.40;99.90;;;;;;2245200;26;20735;-70
2024/04/20 01:58:26;;;;;;;7.60;3.07;;;2.40;99.90;;;;;;2230547;26;20936;-71
2024/04/20 01:59:26;;;;;;;6.68;2.97;;;2.50;99.90;;;;;;2244978;26;20282;-70
2024/04/20 02:00:27;;;;;;;8.77;2.80;;;2.50;99.90;;;;;;2244203;26;20310;-70
2024/04/20 02:01:31;;;;;;;5.73;3.00;;;2.50;99.90;;;;;;2244164;26;20269;-70
2024/04/20 02:02:32;;;;;;;9.65;3.97;;;2.50;99.90;;;;;;2229253;26;20311;-70
2024/04/20 02:03:32;;;;;;;6.80;3.10;;;2.50;99.90;;;;;;2237029;26;20309;-70
2024/04/20 02:04:33;;;;;;;13.27;3.70;;;2.50;99.90;;;;;;2236581;26;20301;-71
2024/04/20 02:05:34;;;;;;;7.83;3.07;;;2.40;99.90;;;;;;2251646;26;20263;-70
2024/04/20 02:06:34;;;;;;;8.97;3.60;;;2.40;99.90;;;;;;2243701;26;20271;-70
2024/04/20 02:07:35;;;;;;;4.60;3.13;;;2.40;99.90;;;;;;2232343;26;20315;-70
2024/04/20 02:08:36;;;;;;;6.53;3.75;;;2.40;99.90;;;;;;2228825;26;20272;-70
2024/04/20 02:09:37;;;;;;;9.17;3.53;;;2.40;99.90;;;;;;2243367;26;20302;-70
2024/04/20 02:10:37;;;;;;;5.97;2.93;;;2.40;99.90;;;;;;2243313;26;20271;-69
2024/04/20 02:11:38;;;;;;;8.73;3.33;;;2.40;99.90;;;;;;2244175;26;20269;-70
2024/04/20 02:12:39;;;;;;;6.53;3.33;;;2.40;99.90;;;;;;2242290;26;20268;-70
2024/04/20 02:13:39;;;;;;;5.97;3.30;;;2.40;99.90;;;;;;2243350;26;20261;-69
2024/04/20 02:14:40;;;;;;;4.87;3.27;;;2.40;99.90;;;;;;2243168;26;20860;-70
2024/04/20 02:15:41;;;;;;;10.90;3.40;;;2.40;99.90;;;;;;2243350;26;20672;-70
2024/04/20 02:16:42;;;;;;;7.57;3.50;;;2.40;99.90;;;;;;2242996;26;20267;-70
2024/04/20 02:17:42;;;;;;;9.47;4.53;;;2.40;99.90;;;;;;2243702;26;20420;-70
2024/04/20 02:18:43;;;;;;;6.73;2.73;;;2.40;99.90;;;;;;2243514;26;20310;-71
2024/04/20 02:19:44;;;;;;;7.87;3.30;;;2.40;99.90;;;;;;2243348;26;20271;-70
2024/04/20 02:20:44;;;;;;;9.23;3.23;;;2.50;99.90;;;;;;2250446;26;20271;-70
2024/04/20 02:21:45;;;;;;;7.97;3.20;;;2.50;99.90;;;;;;2252202;26;20264;-70
2024/04/20 02:22:46;;;;;;;5.97;3.20;;;2.50;99.90;;;;;;2242749;26;20261;-70
2024/04/20 02:23:46;;;;;;;9.03;3.67;;;2.50;99.90;;;;;;2242843;26;20268;-70
2024/04/20 02:24:47;;;;;;;6.57;3.20;;;2.60;99.90;;;;;;2228895;26;20435;-70
2024/04/20 02:25:48;;;;;;;5.83;3.00;;;2.60;99.90;;;;;;2235999;26;20613;-69
2024/04/20 02:26:50;;;;;;;5.50;3.33;;;2.60;99.90;;;;;;2221557;26;20279;-70
2024/04/20 02:27:53;;;;;;;8.70;3.00;;;2.60;99.90;;;;;;2221544;26;20681;-69
2024/04/20 02:28:54;;;;;;;6.10;2.92;;;2.60;99.90;;;;;;2221759;26;20365;-70
2024/04/20 02:29:55;;;;;;;7.30;3.43;;;2.60;99.90;;;;;;2236180;26;20276;-70
2024/04/20 02:30:55;;;;;;;6.00;2.77;;;2.70;99.90;;;;;;2250653;26;20305;-70
2024/04/20 02:31:56;;;;;;;7.50;2.70;;;2.70;99.90;;;;;;2251545;26;20259;-70
2024/04/20 02:32:56;;;;;;;5.67;2.70;;;2.70;99.90;;;;;;2251849;26;20616;-70
2024/04/20 02:33:58;;;;;;;7.23;2.90;;;2.70;99.90;;;;;;2250927;26;20260;-70
2024/04/20 02:34:59;;;;;;;3.97;2.80;;;2.70;99.90;;;;;;2236808;26;20764;-70
2024/04/20 02:36:00;;;;;;;7.30;3.93;;;2.60;99.90;;;;;;2244394;26;20279;-70
2024/04/20 02:37:11;;;;;;;5.67;3.17;;;2.50;99.90;;;;;;2243972;26;20313;-70
2024/04/20 02:38:12;;;;;;;8.23;3.63;;;2.40;99.90;;;;;;2235539;26;20243;-70
2024/04/20 02:39:13;;;;;;;8.33;3.37;;;2.30;99.90;;;;;;2235714;26;20308;-70
2024/04/20 02:40:14;;;;;;;6.70;3.10;;;2.30;99.90;;;;;;2235731;26;20239;-70
2024/04/20 02:41:14;;;;;;;4.97;3.17;;;2.30;99.90;;;;;;2249583;26;20748;-70
2024/04/20 02:42:15;;;;;;;9.80;3.30;;;2.30;99.90;;;;;;2250206;26;20582;-70
2024/04/20 02:43:16;;;;;;;6.20;2.80;;;2.30;99.90;;;;;;2250847;26;20231;-70
2024/04/20 02:44:16;;;;;;;8.70;2.60;;;2.20;99.90;;;;;;2236152;26;20744;-70
2024/04/20 02:45:18;;;;;;;5.63;3.00;;;2.20;99.90;;;;;;2237080;26;20707;-70
2024/04/20 02:46:19;;;;;;;8.75;2.78;;;2.20;99.90;;;;;;2237488;26;20290;-70
2024/04/20 02:47:19;;;;;;;7.23;2.87;;;2.20;99.90;;;;;;2229164;26;20240;-70
2024/04/20 02:48:21;;;;;;;8.10;2.90;;;2.20;99.90;;;;;;2236084;26;22864;-70
2024/04/20 02:49:23;;;;;;;5.65;2.30;;;2.10;99.90;;;;;;2215439;26;20405;-70
2024/04/20 02:50:24;;;;;;;10.63;3.75;;;2.20;99.90;;;;;;2220794;26;20722;-70
2024/04/20 02:51:24;;;;;;;4.03;2.80;;;2.10;99.90;;;;;;2210078;26;20280;-70
2024/04/20 02:52:25;;;;;;;4.90;2.80;;;2.20;99.90;;;;;;2245416;26;20632;-70
2024/04/20 02:53:26;;;;;;;5.83;3.20;;;2.20;99.90;;;;;;2247187;26;20335;-70
2024/04/20 02:54:27;;;;;;;4.78;2.60;;;2.10;99.90;;;;;;2243833;26;20341;-70
2024/04/20 02:55:28;;;;;;;8.23;3.10;;;2.10;99.90;;;;;;2243541;26;20818;-70
2024/04/20 02:56:29;;;;;;;9.05;3.20;;;2.10;99.90;;;;;;2244174;26;20642;-70
2024/04/20 02:57:29;;;;;;;7.13;3.00;;;2.10;99.90;;;;;;2242678;26;20270;-70
2024/04/20 02:58:30;;;;;;;5.90;2.97;;;2.10;99.90;;;;;;2235471;26;20620;-70
2024/04/20 02:59:31;;;;;;;6.67;2.73;;;2.00;99.90;;;;;;2235789;26;20279;-70
2024/04/20 03:00:31;;;;;;;9.90;2.93;;;2.10;99.90;;;;;;2235039;26;20268;-70
2024/04/20 03:01:32;;;;;;;7.83;3.47;;;2.10;99.90;;;;;;2235222;26;20712;-71
2024/04/20 03:02:33;;;;;;;6.90;3.00;;;2.20;99.90;;;;;;2221199;26;20320;-70
2024/04/20 03:03:33;;;;;;;4.87;2.43;;;2.10;99.90;;;;;;2236456;26;20380;-70
2024/04/20 03:04:34;;;;;;;9.87;2.93;;;2.00;99.90;;;;;;2219969;26;20292;-70
2024/04/20 03:05:35;;;;;;;7.70;2.77;;;1.90;99.90;;;;;;2217024;26;20269;-70
2024/04/20 03:06:36;;;;;;;8.00;3.38;;;1.90;99.90;;;;;;2243685;26;20272;-71
2024/04/20 03:07:37;;;;;;;8.07;2.90;;;2.00;99.90;;;;;;2242849;26;20268;-70
2024/04/20 03:08:37;;;;;;;7.97;3.17;;;2.00;99.90;;;;;;2235787;26;20268;-70
2024/04/20 03:09:38;;;;;;;5.13;2.87;;;1.90;99.90;;;;;;2243941;26;20271;-71
2024/04/20 03:10:39;;;;;;;7.10;3.00;;;1.90;99.90;;;;;;2243959;26;20268;-70
2024/04/20 03:11:39;;;;;;;8.70;3.20;;;1.90;99.90;;;;;;2243379;26;20272;-70
2024/04/20 03:12:40;;;;;;;9.43;3.33;;;2.00;99.90;;;;;;2228556;26;20773;-70
2024/04/20 03:13:41;;;;;;;4.73;2.90;;;2.00;99.90;;;;;;2238955;26;20269;-70
2024/04/20 03:14:45;;;;;;;5.67;2.77;;;2.00;99.90;;;;;;2250141;26;20368;-70
2024/04/20 03:15:46;;;;;;;4.70;3.38;;;2.00;99.90;;;;;;2244539;26;20821;-70
2024/04/20 03:16:47;;;;;;;6.35;2.63;;;2.00;99.90;;;;;;2228410;26;20312;-70
2024/04/20 03:17:48;;;;;;;20.03;3.33;;;2.00;99.90;;;;;;2242709;26;20313;-70
2024/04/20 03:18:49;;;;;;;6.83;2.83;;;2.00;99.90;;;;;;2235641;26;20265;-70
2024/04/20 03:19:51;;;;;;;6.77;3.07;;;2.00;99.90;;;;;;2237417;26;20261;-71
2024/04/20 03:20:51;;;;;;;5.75;2.95;;;2.00;99.90;;;;;;2235617;26;20561;-70
2024/04/20 03:21:52;;;;;;;7.63;3.07;;;2.00;99.90;;;;;;2236832;26;20309;-70
2024/04/20 03:22:53;;;;;;;8.70;2.97;;;2.00;99.90;;;;;;2235074;26;20279;-70
2024/04/20 03:23:53;;;;;;;8.93;3.00;;;2.00;99.90;;;;;;2250655;26;20270;-70
2024/04/20 03:24:54;;;;;;;7.07;3.50;;;1.90;99.90;;;;;;2228566;26;20285;-70
2024/04/20 03:25:55;;;;;;;7.77;3.07;;;1.90;99.90;;;;;;2228742;26;20313;-70
2024/04/20 03:26:55;;;;;;;6.67;3.50;;;1.80;99.90;;;;;;2242859;26;20376;-70
2024/04/20 03:27:56;;;;;;;7.37;3.23;;;1.80;99.90;;;;;;2249998;26;20312;-70
2024/04/20 03:28:57;;;;;;;6.83;2.60;;;1.80;99.90;;;;;;2242687;26;20318;-70
2024/04/20 03:29:57;;;;;;;8.53;3.30;;;1.80;99.90;;;;;;2242540;26;20623;-70
2024/04/20 03:30:58;;;;;;;7.73;3.40;;;1.80;99.90;;;;;;2227887;26;20267;-71
2024/04/20 03:31:59;;;;;;;8.50;2.92;;;1.80;99.90;;;;;;2235633;26;20272;-70
2024/04/20 03:33:00;;;;;;;7.37;2.37;;;1.80;99.90;;;;;;2227798;26;20339;-70
2024/04/20 03:34:01;;;;;;;6.63;2.67;;;1.80;99.90;;;;;;2242764;26;20306;-71
2024/04/20 03:35:04;;;;;;;5.07;2.53;;;1.80;99.90;;;;;;2223363;26;20283;-70
2024/04/20 03:36:05;;;;;;;8.48;2.90;;;1.80;99.90;;;;;;2214562;26;20258;-71
2024/04/20 03:37:08;;;;;;;6.07;2.77;;;1.80;99.90;;;;;;2206459;26;20235;-70
2024/04/20 03:38:09;;;;;;;7.15;3.13;;;1.80;99.90;;;;;;2226351;26;20269;-70
2024/04/20 03:39:11;;;;;;;5.77;2.20;;;1.70;99.90;;;;;;2249858;26;20219;-70
2024/04/20 03:40:11;;;;;;;5.22;2.80;;;1.70;99.90;;;;;;2243969;26;20600;-70
2024/04/20 03:41:12;;;;;;;9.30;3.47;;;1.70;99.90;;;;;;2243113;26;20245;-71
2024/04/20 03:42:13;;;;;;;5.93;2.20;;;1.70;99.90;;;;;;2241306;26;20674;-71
2024/04/20 03:43:13;;;;;;;8.37;2.83;;;1.70;99.90;;;;;;2231519;26;20236;-71
2024/04/20 03:44:14;;;;;;;8.50;2.50;;;1.70;99.90;;;;;;2235976;26;20231;-71
2024/04/20 03:45:15;;;;;;;6.13;2.53;;;1.80;99.90;;;;;;2235076;26;20551;-70
2024/04/20 03:46:15;;;;;;;7.17;3.37;;;1.70;99.90;;;;;;2237014;26;20281;-71
2024/04/20 03:47:17;;;;;;;6.07;2.60;;;1.70;99.90;;;;;;2236402;26;20290;-70
2024/04/20 03:48:17;;;;;;;5.63;2.40;;;1.70;99.90;;;;;;2213078;26;20287;-70
2024/04/20 03:49:18;;;;;;;5.67;2.50;;;1.70;99.90;;;;;;2214326;26;20288;-70
2024/04/20 03:50:20;;;;;;;4.63;2.43;;;1.70;99.90;;;;;;2242628;26;20284;-70
2024/04/20 03:51:20;;;;;;;9.65;3.08;;;1.80;99.90;;;;;;2233815;26;20270;-70
2024/04/20 03:52:21;;;;;;;8.47;2.70;;;1.80;99.90;;;;;;2221440;26;20280;-71
2024/04/20 03:53:23;;;;;;;6.83;2.93;;;1.80;99.90;;;;;;2248764;26;20368;-71
2024/04/20 03:54:23;;;;;;;5.68;2.80;;;1.80;99.90;;;;;;2242752;26;20626;-70
2024/04/20 03:55:24;;;;;;;6.30;2.40;;;1.80;99.90;;;;;;2229541;26;20293;-70
2024/04/20 03:56:26;;;;;;;5.18;2.70;;;1.80;99.90;;;;;;2242523;26;20956;-70
2024/04/20 03:57:28;;;;;;;9.50;2.72;;;1.80;99.90;;;;;;2227956;26;20281;-71
2024/04/20 03:58:29;;;;;;;4.30;2.50;;;1.70;99.90;;;;;;2232037;26;20326;-70
2024/04/20 03:59:30;;;;;;;5.60;2.60;;;1.70;99.90;;;;;;2234052;26;20280;-70
2024/04/20 04:00:30;;;;;;;6.10;2.85;;;1.70;99.90;;;;;;2250587;26;20282;-71
2024/04/20 04:01:31;;;;;;;10.10;2.73;;;1.70;99.90;;;;;;2246763;26;20600;-71
2024/04/20 04:02:32;;;;;;;5.83;2.27;;;1.70;99.90;;;;;;2241994;26;20679;-71
2024/04/20 04:03:33;;;;;;;6.23;3.00;;;1.70;99.90;;;;;;2242693;26;20272;-71
2024/04/20 04:04:34;;;;;;;5.78;2.53;;;1.70;99.90;;;;;;2241253;26;20646;-70
2024/04/20 04:05:34;;;;;;;5.13;2.30;;;1.80;99.90;;;;;;2242668;26;20308;-70
2024/04/20 04:06:35;;;;;;;5.20;2.20;;;1.80;99.90;;;;;;2219770;26;21162;-71
2024/04/20 04:07:36;;;;;;;4.73;2.27;;;1.90;99.90;;;;;;2231135;26;20311;-70
2024/04/20 04:08:36;;;;;;;3.63;1.77;;;1.90;99.90;;;;;;2245851;26;20313;-70
2024/04/20 04:09:37;;;;;;;5.23;2.43;;;1.90;99.90;;;;;;2236174;26;20772;-70
2024/04/20 04:10:38;;;;;;;6.33;2.20;;;1.90;99.90;;;;;;2241717;26;20271;-70
2024/04/20 04:11:39;;;;;;;3.17;2.00;;;1.90;99.90;;;;;;2246822;26;20343;-70
2024/04/20 04:12:39;;;;;;;4.20;2.15;;;1.90;99.90;;;;;;2241400;26;20260;-70
2024/04/20 04:13:40;;;;;;;3.90;1.97;;;1.80;99.90;;;;;;2227871;26;20299;-70
2024/04/20 04:14:41;;;;;;;7.43;2.43;;;1.80;99.90;;;;;;2218922;26;20266;-70
2024/04/20 04:15:42;;;;;;;3.60;1.70;;;1.80;99.90;;;;;;2230322;26;20310;-70
2024/04/20 04:16:43;;;;;;;2.43;1.70;;;1.90;99.90;;;;;;2243627;26;20267;-70
2024/04/20 04:17:46;;;;;;;5.67;2.03;;;1.90;99.90;;;;;;2244314;26;20266;-71
2024/04/20 04:18:47;;;;;;;6.63;2.53;;;1.90;99.90;;;;;;2256774;26;21607;-70
2024/04/20 04:19:47;;;;;;;3.17;2.17;;;1.80;99.90;;;;;;2244376;26;20275;-70
2024/04/20 04:20:48;;;;;;;4.20;1.67;;;1.80;99.90;;;;;;2229120;26;20373;-70
2024/04/20 04:21:49;;;;;;;1.57;1.43;;;1.70;99.90;;;;;;2227920;26;20272;-70
2024/04/20 04:22:50;;;;;;;5.73;2.00;;;1.70;99.90;;;;;;2248363;26;20500;-70
2024/04/20 04:23:50;;;;;;;3.67;2.00;;;1.70;99.90;;;;;;2257017;26;20286;-70
2024/04/20 04:24:51;;;;;;;3.33;1.73;;;1.80;99.90;;;;;;2243179;26;20279;-70
2024/04/20 04:25:52;;;;;;;3.37;1.77;;;1.80;99.90;;;;;;2228693;26;20302;-70
2024/04/20 04:27:08;;;;;;;5.93;2.10;;;1.80;99.90;;;;;;2243043;26;20306;-70
2024/04/20 04:28:09;;;;;;;5.35;2.60;;;1.80;99.90;;;;;;2245788;26;20240;-70
2024/04/20 04:29:09;;;;;;;3.37;1.90;;;1.80;99.90;;;;;;2248695;26;20258;-70
2024/04/20 04:30:10;;;;;;;4.53;2.10;;;1.80;99.90;;;;;;2248072;26;20328;-70
2024/04/20 04:31:11;;;;;;;3.60;1.40;;;1.80;99.90;;;;;;2236357;26;20224;-70
2024/04/20 04:32:12;;;;;;;3.10;1.40;;;1.80;99.90;;;;;;2249873;26;20304;-70
2024/04/20 04:33:12;;;;;;;7.93;2.23;;;1.80;99.90;;;;;;2248973;26;20262;-70
2024/04/20 04:34:13;;;;;;;2.43;1.37;;;1.70;99.90;;;;;;2233069;26;20288;-70
2024/04/20 04:35:14;;;;;;;2.70;1.40;;;1.70;99.90;;;;;;2227471;26;20281;-70
2024/04/20 04:36:15;;;;;;;5.63;1.92;;;1.70;99.90;;;;;;2249564;26;20862;-70
2024/04/20 04:37:15;;;;;;;3.07;1.67;;;1.70;99.90;;;;;;2243197;26;20266;-71
2024/04/20 04:38:16;;;;;;;4.23;1.80;;;1.70;99.90;;;;;;2242252;26;20712;-70
2024/04/20 04:39:17;;;;;;;2.30;1.73;;;1.80;99.90;;;;;;2242380;26;20246;-70
2024/04/20 04:40:17;;;;;;;3.20;1.87;;;1.70;99.90;;;;;;2241953;26;20254;-70
2024/04/20 04:41:18;;;;;;;5.27;1.87;;;1.70;99.90;;;;;;2231058;26;20357;-70
2024/04/20 04:42:19;;;;;;;2.90;1.50;;;1.70;99.90;;;;;;2231160;26;20236;-70
2024/04/20 04:43:20;;;;;;;3.67;1.40;;;1.70;99.90;;;;;;2242495;26;20241;-70
2024/04/20 04:44:21;;;;;;;3.67;1.73;;;1.70;99.90;;;;;;2243493;26;20295;-70
2024/04/20 04:45:22;;;;;;;3.33;1.90;;;1.70;99.90;;;;;;2242640;26;20774;-70
2024/04/20 04:46:22;;;;;;;1.83;1.20;;;1.70;99.90;;;;;;2231646;26;20276;-70
2024/04/20 04:47:23;;;;;;;2.63;1.30;;;1.70;99.90;;;;;;2221298;26;20296;-70
2024/04/20 04:48:26;;;;;;;4.90;2.43;;;1.80;99.90;;;;;;2234601;26;21067;-70
2024/04/20 04:49:27;;;;;;;2.88;1.45;;;1.80;99.90;;;;;;2249588;26;20266;-70
2024/04/20 04:50:28;;;;;;;3.77;1.40;;;1.90;99.90;;;;;;2235302;26;20310;-71
2024/04/20 04:51:28;;;;;;;2.80;1.50;;;1.80;99.90;;;;;;2221085;26;20314;-70
2024/04/20 04:52:29;;;;;;;2.30;1.50;;;1.80;99.90;;;;;;2220102;26;20310;-70
2024/04/20 04:53:30;;;;;;;1.30;1.02;;;1.80;99.90;;;;;;2220823;26;20737;-70
2024/04/20 04:54:31;;;;;;;3.10;1.50;;;1.80;99.90;;;;;;2235266;26;20341;-70
2024/04/20 04:55:32;;;;;;;1.83;1.47;;;1.80;99.90;;;;;;2251548;26;20310;-70
2024/04/20 04:56:33;;;;;;;2.30;1.10;;;1.90;99.90;;;;;;2244667;26;20667;-70
2024/04/20 04:57:34;;;;;;;3.03;1.30;;;1.90;99.90;;;;;;2249137;26;20274;-70
2024/04/20 04:58:34;;;;;;;1.93;1.00;;;2.00;99.90;;;;;;2246859;26;20720;-70
2024/04/20 04:59:35;;;;;;;2.87;1.47;;;2.00;99.90;;;;;;2232101;26;20267;-70
2024/04/20 05:00:36;;;;;;;2.20;1.20;;;2.00;99.90;;;;;;2230181;26;20271;-70
2024/04/20 05:01:38;;;;;;;3.53;1.40;;;1.90;99.90;;;;;;2227486;26;20279;-70
2024/04/20 05:02:39;;;;;;;1.80;1.05;;;1.90;99.90;;;;;;2242553;26;20302;-70
2024/04/20 05:03:40;;;;;;;1.20;1.10;;;1.90;99.90;;;;;;2243387;26;20390;-70
2024/04/20 05:04:41;;;;;;;2.60;1.43;;;1.80;99.90;;;;;;2233220;26;20666;-70
2024/04/20 05:05:48;;;;;;;0.98;0.90;;;1.90;99.90;;;;;;2243294;26;20377;-70
2024/04/20 05:06:49;;;;;;;1.15;0.98;;;1.90;99.90;;;;;;2241874;26;20317;-70
2024/04/20 05:07:49;;;;;;;1.50;1.10;;;1.90;99.90;;;;;;2229051;26;20304;-70
2024/04/20 05:08:50;;;;;;;2.50;1.00;;;1.90;99.90;;;;;;2236471;26;20305;-70
2024/04/20 05:09:51;;;;;;;1.93;1.10;;;1.90;99.90;;;;;;2227794;26;20835;-69
2024/04/20 05:10:53;;;;;;;1.97;1.07;;;1.90;99.90;;;;;;2242010;26;20661;-70
2024/04/20 05:11:54;;;;;;;1.40;0.90;;;1.90;99.90;;;;;;2242307;26;20376;-70
2024/04/20 05:12:55;;;;;;;2.58;1.00;;;1.80;99.90;;;;;;2220177;26;20280;-70
2024/04/20 05:13:55;;;;;;;1.70;1.03;;;1.80;99.90;;;;;;2234944;26;20327;-70
2024/04/20 05:14:57;;;;;;;1.00;0.90;;;1.90;99.90;;;;;;2242172;26;20836;-70
2024/04/20 05:15:58;;;;;;;1.10;0.90;;;1.90;99.90;;;;;;2249506;26;20262;-70
2024/04/20 05:16:58;;;;;;;1.80;0.90;;;1.90;99.90;;;;;;2250827;26;20384;-70
2024/04/20 05:18:00;;;;;;;1.23;0.80;;;2.00;99.90;;;;;;2243232;26;20306;-70
2024/04/20 05:19:00;;;;;;;1.23;0.90;;;2.00;99.90;;;;;;2234758;26;21106;-70
2024/04/20 05:20:01;;;;;;;1.57;1.13;;;2.10;99.90;;;;;;2219400;26;20245;-69
2024/04/20 05:21:02;;;;;;;1.53;1.27;;;2.10;99.90;;;;;;2250028;26;20282;-70